Weather at Malakal Airport

Public forecast

Using degrees Celsius for public forecast. Weather courtesy of forecast.io.

Closest aviation weather report (METAR) to Malakal Airport

Closest report is Addis Ababa Bole International Airport, 424.9 nm (787.0 km) E.

2024/07/19 09:00 (retrieved 38 minutes ago)

HAAB 190900Z 20006KT 9999 BKN024 BKN070 18/15 Q1026

Closest aviation forecast (TAF) to Malakal Airport

Closest forecast is Addis Ababa Bole International Airport, 424.9 nm (787.0 km) E.

2024/07/19 06:57 (retrieved 3 hours ago)

TAF TAF HAAB 190330Z 1906/2012 26009KT 9999 SCT020 BKN070 BECMG 1911/1916 8000 RA/BR BKN020 BKN060